createdAt,value
2022-09-13T00:01:58.264Z,100.00
2022-09-13T00:07:01.057Z,100.00
2022-09-13T00:12:03.859Z,100.00
2022-09-13T00:17:06.645Z,100.00
2022-09-13T00:22:09.414Z,100.00
2022-09-13T00:27:13.098Z,100.00
2022-09-13T00:32:16.278Z,100.00
2022-09-13T00:37:18.940Z,100.00
2022-09-13T00:42:21.702Z,100.00
2022-09-13T00:47:24.410Z,100.00
2022-09-13T00:52:27.292Z,100.00
2022-09-13T00:57:31.006Z,100.00
2022-09-13T01:02:33.737Z,100.00
2022-09-13T01:07:36.971Z,100.00
2022-09-13T01:12:40.752Z,100.00
2022-09-13T01:17:43.399Z,100.00
2022-09-13T01:22:46.177Z,100.00
2022-09-13T01:27:49.042Z,100.00
2022-09-13T01:32:51.847Z,100.00
2022-09-13T01:37:54.670Z,100.00
2022-09-13T01:42:58.043Z,100.00
2022-09-13T01:48:00.874Z,100.00
2022-09-13T01:53:04.524Z,100.00
2022-09-13T01:58:07.611Z,100.00
2022-09-13T02:03:10.901Z,100.00
2022-09-13T02:08:13.595Z,100.00
2022-09-13T02:13:17.285Z,100.00
2022-09-13T02:18:20.076Z,100.00
2022-09-13T02:23:22.905Z,100.00
2022-09-13T02:28:25.577Z,100.00
2022-09-13T02:33:28.286Z,100.00
2022-09-13T02:38:30.965Z,100.00
2022-09-13T02:43:33.604Z,100.00
2022-09-13T02:48:37.487Z,100.00
2022-09-13T02:53:40.352Z,100.00
2022-09-13T02:58:43.190Z,100.00
2022-09-13T03:03:45.907Z,100.00
2022-09-13T03:08:48.589Z,100.00
2022-09-13T03:13:51.289Z,100.00
2022-09-13T03:18:54.013Z,100.00
2022-09-13T03:23:56.671Z,100.00
2022-09-13T03:29:04.409Z,100.00
2022-09-13T03:34:07.106Z,100.00
2022-09-13T03:39:14.439Z,100.00
2022-09-13T03:44:17.817Z,100.00
2022-09-13T03:49:20.519Z,100.00
2022-09-13T03:54:23.241Z,100.00
2022-09-13T03:59:26.367Z,100.00
2022-09-13T04:04:29.201Z,100.00
2022-09-13T04:09:31.922Z,100.00
2022-09-13T04:14:34.760Z,100.00
2022-09-13T04:19:37.458Z,100.00
2022-09-13T04:24:40.215Z,100.00
2022-09-13T04:29:42.950Z,100.00
2022-09-13T04:34:47.713Z,100.00
2022-09-13T04:39:50.483Z,100.00
2022-09-13T04:44:53.181Z,100.00
2022-09-13T04:49:55.978Z,100.00
2022-09-13T04:55:01.531Z,100.00
2022-09-13T05:00:05.161Z,100.00
2022-09-13T05:05:08.900Z,100.00
2022-09-13T05:10:14.234Z,100.00
2022-09-13T05:15:19.195Z,100.00
2022-09-13T05:20:22.351Z,100.00
2022-09-13T05:25:26.223Z,100.00
2022-09-13T05:30:29.958Z,100.00
2022-09-13T05:35:32.827Z,100.00
2022-09-13T05:40:44.349Z,100.00
2022-09-13T05:45:47.310Z,100.00
2022-09-13T05:50:58.675Z,100.00
2022-09-13T05:56:01.733Z,100.00
2022-09-13T06:01:04.836Z,100.00
2022-09-13T06:06:07.853Z,100.00
2022-09-13T06:11:14.348Z,100.00
2022-09-13T06:16:17.428Z,100.00
2022-09-13T06:21:29.090Z,100.00
2022-09-13T06:26:36.946Z,100.00
2022-09-13T06:31:43.930Z,100.00
2022-09-13T06:36:46.848Z,100.00
2022-09-13T06:41:49.720Z,100.00
2022-09-13T06:46:53.584Z,100.00
2022-09-13T06:51:56.354Z,100.00
2022-09-13T06:56:59.187Z,99.35
2022-09-13T07:02:02.127Z,95.97
2022-09-13T07:07:05.141Z,94.46
2022-09-13T07:12:08.991Z,88.53
2022-09-13T07:17:12.835Z,87.02
2022-09-13T07:22:16.747Z,80.72
2022-09-13T07:27:20.582Z,76.02
2022-09-13T07:32:23.413Z,73.63
2022-09-13T07:37:26.178Z,69.83
2022-09-13T07:42:28.966Z,67.54
2022-09-13T07:47:31.846Z,65.13
2022-09-13T07:52:37.690Z,62.69
2022-09-13T07:57:40.434Z,62.40
2022-09-13T08:02:44.259Z,58.07
2022-09-13T08:07:47.023Z,57.98
2022-09-13T08:12:50.848Z,54.35
2022-09-13T08:17:59.667Z,52.81
2022-09-13T08:23:02.409Z,51.92
2022-09-13T08:28:05.184Z,52.50
2022-09-13T08:33:07.998Z,54.45
2022-09-13T08:38:10.823Z,55.65
2022-09-13T08:43:14.902Z,56.17
2022-09-13T08:48:18.481Z,58.56
2022-09-13T08:53:21.189Z,57.50
2022-09-13T08:58:24.002Z,62.55
2022-09-13T09:03:26.685Z,58.51
2022-09-13T09:08:31.245Z,58.22
2022-09-13T09:13:34.070Z,58.92
2022-09-13T09:18:37.871Z,57.85
2022-09-13T09:23:40.744Z,57.49
2022-09-13T09:28:43.450Z,56.17
2022-09-13T09:33:46.288Z,54.79
2022-09-13T09:39:07.120Z,55.63
2022-09-13T09:44:09.984Z,57.95
2022-09-13T09:49:33.911Z,55.71
2022-09-13T09:54:39.075Z,57.10
2022-09-13T09:59:41.961Z,56.59
2022-09-13T10:04:45.114Z,56.15
2022-09-13T10:09:47.926Z,56.37
2022-09-13T10:14:53.139Z,54.49
2022-09-13T10:19:57.734Z,53.41
2022-09-13T10:25:00.956Z,53.06
2022-09-13T10:30:03.910Z,54.51
2022-09-13T10:35:08.835Z,53.85
2022-09-13T10:40:11.601Z,51.90
2022-09-13T10:45:17.603Z,53.10
2022-09-13T10:50:20.501Z,51.80
2022-09-13T10:55:24.042Z,51.46
2022-09-13T11:00:31.208Z,48.34
2022-09-13T11:05:37.325Z,43.93
2022-09-13T11:10:40.944Z,42.25
2022-09-13T11:15:43.627Z,39.47
2022-09-13T11:20:46.396Z,39.01
2022-09-13T11:25:49.043Z,38.24
2022-09-13T11:30:51.820Z,37.61
2022-09-13T11:35:54.652Z,37.84
2022-09-13T11:40:57.411Z,38.96
2022-09-13T11:46:00.189Z,36.96
2022-09-13T11:51:03.161Z,39.25
2022-09-13T11:56:05.939Z,37.75
2022-09-13T12:01:08.830Z,36.48
2022-09-13T12:06:11.692Z,35.90
2022-09-13T12:11:16.189Z,35.54
2022-09-13T12:16:19.266Z,36.62
2022-09-13T12:21:23.530Z,37.87
2022-09-13T12:26:26.346Z,38.16
2022-09-13T12:31:29.188Z,36.50
2022-09-13T12:36:32.276Z,40.08
2022-09-13T12:41:35.103Z,39.53
2022-09-13T12:46:37.887Z,40.82
2022-09-13T12:51:41.004Z,41.32
2022-09-13T12:56:44.644Z,40.14
2022-09-13T13:01:48.017Z,40.72
2022-09-13T13:06:51.367Z,39.93
2022-09-13T13:11:54.599Z,40.26
2022-09-13T13:16:57.418Z,40.71
2022-09-13T13:22:00.136Z,40.95
2022-09-13T13:27:03.061Z,41.07
2022-09-13T13:32:07.802Z,40.48
2022-09-13T13:37:10.824Z,39.98
2022-09-13T13:42:13.673Z,40.03
2022-09-13T13:47:16.447Z,39.98
2022-09-13T13:52:22.372Z,38.69
2022-09-13T13:57:25.318Z,39.42
2022-09-13T14:02:28.224Z,37.96
2022-09-13T14:07:31.460Z,36.93
2022-09-13T14:12:34.330Z,36.06
2022-09-13T14:17:37.241Z,34.11
2022-09-13T14:22:40.145Z,35.53
2022-09-13T14:27:43.953Z,35.64
2022-09-13T14:32:47.167Z,35.39
2022-09-13T14:37:50.126Z,35.84
2022-09-13T14:42:52.980Z,36.71
2022-09-13T14:47:55.901Z,36.81
2022-09-13T14:52:58.660Z,37.29
2022-09-13T14:58:03.517Z,35.94
2022-09-13T15:03:06.260Z,35.21
2022-09-13T15:08:10.132Z,35.59
2022-09-13T15:13:12.977Z,35.76
2022-09-13T15:18:17.785Z,36.07
2022-09-13T15:23:21.646Z,35.64
2022-09-13T15:28:24.305Z,34.94
2022-09-13T15:33:28.094Z,35.35
2022-09-13T15:38:31.685Z,36.52
2022-09-13T15:43:34.352Z,39.03
2022-09-13T15:48:37.113Z,39.89
2022-09-13T15:53:39.958Z,40.54
2022-09-13T15:58:42.816Z,43.36
2022-09-13T16:03:45.589Z,43.77
2022-09-13T16:08:48.366Z,44.54
2022-09-13T16:13:52.317Z,45.45
2022-09-13T16:18:55.155Z,46.60
2022-09-13T16:23:58.365Z,47.98
2022-09-13T16:29:01.058Z,49.19
2022-09-13T16:34:03.805Z,51.39
2022-09-13T16:39:07.544Z,53.49
2022-09-13T16:44:10.561Z,55.57
2022-09-13T16:49:13.334Z,57.45
2022-09-13T16:54:16.034Z,59.53
2022-09-13T16:59:18.733Z,61.44
2022-09-13T17:04:22.551Z,63.05
2022-09-13T17:09:27.559Z,64.41
2022-09-13T17:14:30.414Z,65.19
2022-09-13T17:19:33.526Z,66.67
2022-09-13T17:24:37.393Z,65.63
2022-09-13T17:29:40.138Z,66.46
2022-09-13T17:34:42.917Z,68.18
2022-09-13T17:39:46.241Z,69.87
2022-09-13T17:44:49.036Z,72.09
2022-09-13T17:49:53.192Z,73.89
2022-09-13T17:54:56.651Z,76.22
2022-09-13T17:59:59.435Z,77.07
2022-09-13T18:05:05.384Z,79.29
2022-09-13T18:10:24.955Z,79.93
2022-09-13T18:15:32.796Z,81.76
2022-09-13T18:20:39.961Z,82.76
2022-09-13T18:25:48.158Z,84.34
2022-09-13T18:30:51.000Z,86.08
2022-09-13T18:35:53.803Z,86.95
2022-09-13T18:40:56.544Z,87.96
2022-09-13T18:45:59.508Z,87.32
2022-09-13T18:51:02.395Z,88.09
2022-09-13T18:56:05.142Z,88.11
2022-09-13T19:01:07.902Z,90.04
2022-09-13T19:06:10.778Z,90.08
2022-09-13T19:11:45.216Z,91.06
2022-09-13T19:16:46.250Z,90.05
2022-09-13T19:21:49.111Z,90.36
2022-09-13T19:26:56.175Z,90.30
2022-09-13T19:31:59.054Z,91.88
2022-09-13T19:37:04.031Z,93.21
2022-09-13T19:42:06.934Z,93.06
2022-09-13T19:52:35.476Z,94.18
2022-09-13T19:57:39.977Z,95.22
2022-09-13T20:02:45.836Z,96.38
2022-09-13T20:07:51.916Z,96.95
2022-09-13T20:12:55.304Z,98.89
2022-09-13T20:17:58.240Z,99.46
2022-09-13T20:23:01.107Z,100.00
2022-09-13T20:28:04.093Z,100.00
2022-09-13T20:33:06.914Z,100.00
2022-09-13T20:38:09.853Z,100.00
2022-09-13T20:43:12.796Z,100.00
2022-09-13T20:48:16.137Z,100.00
2022-09-13T20:53:19.550Z,100.00
2022-09-13T20:58:22.829Z,100.00
2022-09-13T21:03:27.308Z,100.00
2022-09-13T21:08:42.729Z,100.00
2022-09-13T21:13:46.066Z,100.00
2022-09-13T21:18:49.408Z,100.00
2022-09-13T21:23:52.794Z,100.00
2022-09-13T21:28:56.060Z,100.00
2022-09-13T21:33:59.384Z,100.00
2022-09-13T21:39:03.536Z,100.00
2022-09-13T21:44:06.860Z,100.00
2022-09-13T21:49:10.258Z,100.00
2022-09-13T21:54:14.307Z,100.00
2022-09-13T21:59:19.057Z,100.00
2022-09-13T22:04:22.453Z,100.00
2022-09-13T22:09:26.941Z,100.00
2022-09-13T22:14:30.499Z,100.00
2022-09-13T22:19:33.703Z,100.00
2022-09-13T22:24:36.928Z,100.00
2022-09-13T22:29:40.569Z,100.00
2022-09-13T22:34:43.835Z,100.00
2022-09-13T22:39:47.728Z,100.00
2022-09-13T22:44:51.063Z,100.00
2022-09-13T22:49:54.292Z,100.00
2022-09-13T22:55:02.491Z,100.00
2022-09-13T23:00:05.723Z,100.00
2022-09-13T23:05:09.031Z,100.00
2022-09-13T23:10:12.433Z,100.00
2022-09-13T23:15:16.085Z,100.00
2022-09-13T23:20:20.281Z,100.00
2022-09-13T23:25:23.477Z,100.00
2022-09-13T23:30:26.787Z,100.00
2022-09-13T23:35:30.061Z,100.00
2022-09-13T23:40:35.716Z,100.00
2022-09-13T23:45:39.207Z,100.00
2022-09-13T23:50:43.561Z,100.00
2022-09-13T23:55:47.215Z,100.00
